»·PEaware :: N349AF KSNA-KSBD

N349AF :: KSNA-KSBD

FLIGHT INFORMATION

Flight Status: Arrived
Operator: Privately registered:
United States
More flights under this callsign
Pilot: Sean M. (20132)
Aircraft: CESSNA 172 SKYHAWK
(C172)
More flights by this aircraft type
Origin: KSNA John Wayne-Orange Co
United States
Destination: KSBD San Bernardino Intl
United States
More flights between these airports :: More routes between these airports
Route: SLI V8 PDZ
File this flight plan on PilotEdge
Remarks: I4 Rating
Altitude:
(Current/Filed)
5,000ft
Speed:
(Current/Filed)
115kts
Departed: 24-Sep-18 08:26 PM
Arrived: 24-Sep-18 09:07 PM
Distance/Time
Traveled:
41nm/0:41
Distance/Time
To Go:
Arrived

Flight Plot

Page will automatically refresh every two minutes.


Map Options




Map Legend


Flown Route
Filed Route
Departure Airport
Arrival Airport
Navaid (VOR, NDB)
Fix

Horizontal Profiles

Position Reports

Time Latitude Longitude Heading Altitude Ground
Speed
24-Sep-18 20:13 33.676205 -117.871104 212 60ft 0kts
24-Sep-18 20:14 33.676205 -117.871104 212 60ft 0kts
24-Sep-18 20:15 33.676205 -117.871104 212 60ft 0kts
24-Sep-18 20:16 33.676205 -117.871104 212 60ft 0kts
24-Sep-18 20:17 33.676205 -117.871104 212 60ft 0kts
24-Sep-18 20:18 33.676205 -117.871104 212 60ft 0kts
24-Sep-18 20:19 33.676205 -117.871104 212 60ft 0kts
24-Sep-18 20:20 33.676205 -117.871104 212 60ft 0kts
24-Sep-18 20:21 33.676205 -117.871104 212 60ft 0kts
24-Sep-18 20:22 33.676205 -117.871104 212 60ft 0kts
24-Sep-18 20:23 33.676205 -117.871104 212 60ft 0kts
24-Sep-18 20:24 33.676205 -117.871104 212 60ft 0kts
24-Sep-18 20:25 33.677306 -117.869291 26 60ft 20kts
24-Sep-18 20:26 33.681226 -117.866781 94 60ft 8kts
24-Sep-18 20:27 33.681221 -117.866665 94 60ft 0kts
24-Sep-18 20:28 33.678830 -117.866812 203 60ft 52kts
24-Sep-18 20:29 33.663831 -117.878438 225 1057ft 69kts
24-Sep-18 20:30 33.652182 -117.895092 228 2019ft 78kts
24-Sep-18 20:31 33.634445 -117.922925 251 2040ft 124kts
24-Sep-18 20:32 33.642176 -117.956507 290 2507ft 111kts
24-Sep-18 20:33 33.651969 -117.986804 289 2893ft 111kts
24-Sep-18 20:34 33.662420 -118.019243 289 3339ft 109kts
24-Sep-18 20:35 33.682435 -118.038532 350 3755ft 109kts
24-Sep-18 20:36 33.710689 -118.043436 351 4146ft 110kts
24-Sep-18 20:37 33.738720 -118.048263 350 4569ft 108kts
24-Sep-18 20:38 33.766641 -118.052995 350 5030ft 112kts
24-Sep-18 20:39 33.788692 -118.033865 71 5044ft 127kts
24-Sep-18 20:40 33.798390 -117.997183 72 5045ft 123kts
24-Sep-18 20:41 33.807848 -117.960793 72 5045ft 122kts
24-Sep-18 20:42 33.817282 -117.924369 72 5045ft 122kts
24-Sep-18 20:43 33.826704 -117.887914 72 5045ft 122kts
24-Sep-18 20:44 33.836044 -117.851751 72 5045ft 122kts
24-Sep-18 20:45 33.845637 -117.815551 71 5045ft 122kts
24-Sep-18 20:46 33.855359 -117.779287 70 5043ft 122kts
24-Sep-18 20:47 33.864710 -117.743335 71 5043ft 122kts
24-Sep-18 20:48 33.873485 -117.706936 73 5045ft 122kts
24-Sep-18 20:49 33.882634 -117.670659 72 5045ft 122kts
24-Sep-18 20:50 33.891904 -117.634333 72 5045ft 122kts
24-Sep-18 20:51 33.901163 -117.598036 72 5045ft 122kts
24-Sep-18 20:52 33.910351 -117.562034 72 5045ft 122kts
24-Sep-18 20:53 33.920099 -117.527846 56 5046ft 122kts
24-Sep-18 20:54 33.936848 -117.498074 60 5044ft 122kts
24-Sep-18 20:55 33.951864 -117.463962 61 4609ft 131kts
24-Sep-18 20:56 33.967068 -117.429486 61 4071ft 128kts
24-Sep-18 20:57 33.981124 -117.397592 61 4045ft 118kts
24-Sep-18 20:58 33.994920 -117.366354 61 4045ft 118kts
24-Sep-18 20:59 34.009195 -117.334052 61 4045ft 118kts
24-Sep-18 21:00 34.024464 -117.299531 61 4045ft 118kts
24-Sep-18 21:01 34.039684 -117.265237 61 4045ft 118kts
24-Sep-18 21:02 34.055062 -117.230528 61 4045ft 118kts
24-Sep-18 21:03 34.070485 -117.195717 61 4045ft 118kts
24-Sep-18 21:04 34.084818 -117.163805 60 3954ft 87kts
24-Sep-18 21:05 34.103229 -117.153524 322 3211ft 108kts
24-Sep-18 21:06 34.111993 -117.178299 258 2172ft 87kts
24-Sep-18 21:07 34.105445 -117.201122 251 1583ft 66kts
24-Sep-18 21:08 34.099058 -117.222179 251 1161ft 56kts
24-Sep-18 21:09 34.098368 -117.227281 38 1138ft 14kts
24-Sep-18 21:10 34.100487 -117.226664 359 1139ft 0kts

Navigation Log

Ident Type
1. KSNA Airport
2. SLI Navaid
3. AHEIM Fix
4. OLLIE Fix
5. POXKU Fix
6. EBITE Fix
7. PDZ Navaid
8. KSBD Airport